sensor_id;sensor_type;location;lat;lon;timestamp;P1;durP1;ratioP1;P2;durP2;ratioP2
7529;SDS011;3806;52.270;10.544;2022-09-27T00:00:26;1.20;;;0.80;;
7529;SDS011;3806;52.270;10.544;2022-09-27T00:02:52;1.10;;;1.00;;
7529;SDS011;3806;52.270;10.544;2022-09-27T00:05:18;0.70;;;0.70;;
7529;SDS011;3806;52.270;10.544;2022-09-27T00:07:44;1.02;;;0.70;;
7529;SDS011;3806;52.270;10.544;2022-09-27T00:10:12;1.55;;;0.82;;
7529;SDS011;3806;52.270;10.544;2022-09-27T00:12:38;1.23;;;0.80;;
7529;SDS011;3806;52.270;10.544;2022-09-27T00:15:04;0.95;;;0.70;;
7529;SDS011;3806;52.270;10.544;2022-09-27T00:17:31;2.53;;;0.90;;
7529;SDS011;3806;52.270;10.544;2022-09-27T00:19:58;0.73;;;0.60;;
7529;SDS011;3806;52.270;10.544;2022-09-27T00:22:24;1.90;;;0.70;;
7529;SDS011;3806;52.270;10.544;2022-09-27T00:24:50;1.33;;;0.98;;
7529;SDS011;3806;52.270;10.544;2022-09-27T00:27:16;2.22;;;1.02;;
7529;SDS011;3806;52.270;10.544;2022-09-27T00:29:43;1.02;;;0.70;;
7529;SDS011;3806;52.270;10.544;2022-09-27T00:32:09;1.67;;;0.90;;
7529;SDS011;3806;52.270;10.544;2022-09-27T00:34:38;2.17;;;0.88;;
7529;SDS011;3806;52.270;10.544;2022-09-27T00:37:04;1.83;;;0.82;;
7529;SDS011;3806;52.270;10.544;2022-09-27T00:39:30;1.45;;;0.85;;
7529;SDS011;3806;52.270;10.544;2022-09-27T00:41:55;1.08;;;0.80;;
7529;SDS011;3806;52.270;10.544;2022-09-27T00:46:59;2.33;;;1.00;;
7529;SDS011;3806;52.270;10.544;2022-09-27T00:49:31;0.82;;;0.60;;
7529;SDS011;3806;52.270;10.544;2022-09-27T00:52:04;1.08;;;0.90;;
7529;SDS011;3806;52.270;10.544;2022-09-27T00:54:38;0.60;;;0.50;;
7529;SDS011;3806;52.270;10.544;2022-09-27T00:57:08;0.63;;;0.57;;
7529;SDS011;3806;52.270;10.544;2022-09-27T00:59:35;0.60;;;0.60;;
7529;SDS011;3806;52.270;10.544;2022-09-27T01:02:05;0.50;;;0.50;;
7529;SDS011;3806;52.270;10.544;2022-09-27T01:04:31;0.85;;;0.70;;
7529;SDS011;3806;52.270;10.544;2022-09-27T01:06:58;1.05;;;0.65;;
7529;SDS011;3806;52.270;10.544;2022-09-27T01:09:24;0.80;;;0.70;;
7529;SDS011;3806;52.270;10.544;2022-09-27T01:11:53;0.80;;;0.38;;
7529;SDS011;3806;52.270;10.544;2022-09-27T01:14:34;0.43;;;0.35;;
7529;SDS011;3806;52.270;10.544;2022-09-27T01:25:22;0.68;;;0.50;;
7529;SDS011;3806;52.270;10.544;2022-09-27T01:28:20;2.50;;;0.40;;
7529;SDS011;3806;52.270;10.544;2022-09-27T01:30:54;0.85;;;0.57;;
7529;SDS011;3806;52.270;10.544;2022-09-27T01:47:06;1.25;;;0.75;;
7529;SDS011;3806;52.270;10.544;2022-09-27T01:49:52;1.65;;;0.50;;
7529;SDS011;3806;52.270;10.544;2022-09-27T01:52:23;1.08;;;0.60;;
7529;SDS011;3806;52.270;10.544;2022-09-27T01:55:00;0.73;;;0.60;;
7529;SDS011;3806;52.270;10.544;2022-09-27T01:57:32;2.72;;;0.80;;
7529;SDS011;3806;52.270;10.544;2022-09-27T02:00:06;0.85;;;0.68;;
7529;SDS011;3806;52.270;10.544;2022-09-27T02:02:56;0.50;;;0.50;;
7529;SDS011;3806;52.270;10.544;2022-09-27T02:05:25;0.60;;;0.45;;
7529;SDS011;3806;52.270;10.544;2022-09-27T02:08:04;1.40;;;0.50;;
7529;SDS011;3806;52.270;10.544;2022-09-27T02:10:38;0.68;;;0.57;;
7529;SDS011;3806;52.270;10.544;2022-09-27T02:13:21;1.75;;;0.50;;
7529;SDS011;3806;52.270;10.544;2022-09-27T02:19:03;1.23;;;0.77;;
7529;SDS011;3806;52.270;10.544;2022-09-27T02:24:18;1.40;;;0.90;;
7529;SDS011;3806;52.270;10.544;2022-09-27T02:26:47;0.80;;;0.70;;
7529;SDS011;3806;52.270;10.544;2022-09-27T02:29:22;1.98;;;0.65;;
7529;SDS011;3806;52.270;10.544;2022-09-27T02:31:57;0.68;;;0.65;;
7529;SDS011;3806;52.270;10.544;2022-09-27T02:34:24;0.68;;;0.52;;
7529;SDS011;3806;52.270;10.544;2022-09-27T02:36:53;0.40;;;0.40;;
7529;SDS011;3806;52.270;10.544;2022-09-27T02:39:19;0.52;;;0.52;;
7529;SDS011;3806;52.270;10.544;2022-09-27T02:41:45;1.15;;;0.70;;
7529;SDS011;3806;52.270;10.544;2022-09-27T02:44:11;1.05;;;0.80;;
7529;SDS011;3806;52.270;10.544;2022-09-27T02:49:32;1.38;;;0.95;;
7529;SDS011;3806;52.270;10.544;2022-09-27T03:03:44;1.90;;;1.10;;
7529;SDS011;3806;52.270;10.544;2022-09-27T03:06:16;3.10;;;1.73;;
7529;SDS011;3806;52.270;10.544;2022-09-27T03:08:44;3.38;;;1.13;;
7529;SDS011;3806;52.270;10.544;2022-09-27T03:11:10;2.25;;;1.42;;
7529;SDS011;3806;52.270;10.544;2022-09-27T03:13:35;2.30;;;1.30;;
7529;SDS011;3806;52.270;10.544;2022-09-27T03:16:03;3.50;;;1.45;;
7529;SDS011;3806;52.270;10.544;2022-09-27T03:18:30;2.28;;;1.48;;
7529;SDS011;3806;52.270;10.544;2022-09-27T03:20:58;2.92;;;1.50;;
7529;SDS011;3806;52.270;10.544;2022-09-27T03:23:24;4.30;;;1.35;;
7529;SDS011;3806;52.270;10.544;2022-09-27T03:25:50;1.88;;;1.48;;
7529;SDS011;3806;52.270;10.544;2022-09-27T03:28:15;4.60;;;1.52;;
7529;SDS011;3806;52.270;10.544;2022-09-27T03:30:43;3.75;;;1.55;;
7529;SDS011;3806;52.270;10.544;2022-09-27T03:33:09;3.13;;;1.38;;
7529;SDS011;3806;52.270;10.544;2022-09-27T03:35:35;2.00;;;1.08;;
7529;SDS011;3806;52.270;10.544;2022-09-27T03:38:01;2.50;;;1.42;;
7529;SDS011;3806;52.270;10.544;2022-09-27T03:40:27;2.28;;;1.40;;
7529;SDS011;3806;52.270;10.544;2022-09-27T03:42:53;3.13;;;1.58;;
7529;SDS011;3806;52.270;10.544;2022-09-27T03:45:19;3.38;;;1.20;;
7529;SDS011;3806;52.270;10.544;2022-09-27T03:47:45;2.25;;;1.20;;
7529;SDS011;3806;52.270;10.544;2022-09-27T03:50:12;2.40;;;1.35;;
7529;SDS011;3806;52.270;10.544;2022-09-27T03:52:38;2.80;;;1.60;;
7529;SDS011;3806;52.270;10.544;2022-09-27T03:55:03;2.50;;;1.10;;
7529;SDS011;3806;52.270;10.544;2022-09-27T03:57:30;4.50;;;1.75;;
7529;SDS011;3806;52.270;10.544;2022-09-27T03:59:56;3.00;;;1.40;;
7529;SDS011;3806;52.270;10.544;2022-09-27T04:02:24;2.17;;;1.42;;
7529;SDS011;3806;52.270;10.544;2022-09-27T04:04:50;4.68;;;1.52;;
7529;SDS011;3806;52.270;10.544;2022-09-27T04:07:16;3.13;;;1.30;;
7529;SDS011;3806;52.270;10.544;2022-09-27T04:09:42;6.25;;;1.38;;
7529;SDS011;3806;52.270;10.544;2022-09-27T04:12:08;4.18;;;1.40;;
7529;SDS011;3806;52.270;10.544;2022-09-27T04:14:34;2.45;;;1.30;;
7529;SDS011;3806;52.270;10.544;2022-09-27T04:17:00;3.88;;;1.38;;
7529;SDS011;3806;52.270;10.544;2022-09-27T04:19:26;3.90;;;1.50;;
7529;SDS011;3806;52.270;10.544;2022-09-27T04:21:51;3.28;;;1.13;;
7529;SDS011;3806;52.270;10.544;2022-09-27T04:24:17;2.58;;;1.30;;
7529;SDS011;3806;52.270;10.544;2022-09-27T04:26:42;1.48;;;0.98;;
7529;SDS011;3806;52.270;10.544;2022-09-27T04:29:08;3.30;;;1.20;;
7529;SDS011;3806;52.270;10.544;2022-09-27T04:31:34;5.53;;;0.95;;
7529;SDS011;3806;52.270;10.544;2022-09-27T04:34:04;1.10;;;0.82;;
7529;SDS011;3806;52.270;10.544;2022-09-27T04:36:29;2.10;;;1.10;;
7529;SDS011;3806;52.270;10.544;2022-09-27T04:38:56;3.55;;;1.10;;
7529;SDS011;3806;52.270;10.544;2022-09-27T04:41:24;2.70;;;1.50;;
7529;SDS011;3806;52.270;10.544;2022-09-27T04:43:52;1.05;;;0.93;;
7529;SDS011;3806;52.270;10.544;2022-09-27T04:46:21;3.45;;;0.98;;
7529;SDS011;3806;52.270;10.544;2022-09-27T04:48:47;1.75;;;1.27;;
7529;SDS011;3806;52.270;10.544;2022-09-27T04:51:13;1.73;;;1.33;;
7529;SDS011;3806;52.270;10.544;2022-09-27T04:53:45;3.30;;;1.15;;
7529;SDS011;3806;52.270;10.544;2022-09-27T04:56:12;5.28;;;1.05;;
7529;SDS011;3806;52.270;10.544;2022-09-27T04:58:38;2.50;;;1.17;;
7529;SDS011;3806;52.270;10.544;2022-09-27T05:01:04;3.22;;;1.50;;
7529;SDS011;3806;52.270;10.544;2022-09-27T05:03:30;2.03;;;1.13;;
7529;SDS011;3806;52.270;10.544;2022-09-27T05:05:56;3.90;;;0.90;;
7529;SDS011;3806;52.270;10.544;2022-09-27T05:08:22;2.65;;;1.23;;
7529;SDS011;3806;52.270;10.544;2022-09-27T05:10:48;2.80;;;1.10;;
7529;SDS011;3806;52.270;10.544;2022-09-27T05:13:14;2.30;;;1.40;;
7529;SDS011;3806;52.270;10.544;2022-09-27T05:15:40;2.05;;;1.10;;
7529;SDS011;3806;52.270;10.544;2022-09-27T05:18:06;7.50;;;1.60;;
7529;SDS011;3806;52.270;10.544;2022-09-27T05:20:34;2.72;;;1.15;;
7529;SDS011;3806;52.270;10.544;2022-09-27T05:23:03;3.05;;;1.40;;
7529;SDS011;3806;52.270;10.544;2022-09-27T05:25:30;2.30;;;1.10;;
7529;SDS011;3806;52.270;10.544;2022-09-27T05:27:57;2.67;;;1.27;;
7529;SDS011;3806;52.270;10.544;2022-09-27T05:30:23;4.40;;;1.55;;
7529;SDS011;3806;52.270;10.544;2022-09-27T05:32:49;2.58;;;1.40;;
7529;SDS011;3806;52.270;10.544;2022-09-27T05:35:15;2.83;;;1.50;;
7529;SDS011;3806;52.270;10.544;2022-09-27T05:37:53;4.22;;;1.70;;
7529;SDS011;3806;52.270;10.544;2022-09-27T05:40:21;1.35;;;1.20;;
7529;SDS011;3806;52.270;10.544;2022-09-27T05:42:48;3.20;;;1.50;;
7529;SDS011;3806;52.270;10.544;2022-09-27T05:45:14;1.73;;;1.02;;
7529;SDS011;3806;52.270;10.544;2022-09-27T05:47:40;4.18;;;1.55;;
7529;SDS011;3806;52.270;10.544;2022-09-27T05:50:06;4.07;;;1.52;;
7529;SDS011;3806;52.270;10.544;2022-09-27T05:52:32;4.20;;;1.52;;
7529;SDS011;3806;52.270;10.544;2022-09-27T05:54:58;4.55;;;1.85;;
7529;SDS011;3806;52.270;10.544;2022-09-27T05:57:24;7.35;;;2.05;;
7529;SDS011;3806;52.270;10.544;2022-09-27T05:59:49;5.13;;;1.30;;
7529;SDS011;3806;52.270;10.544;2022-09-27T06:02:17;2.05;;;1.05;;
7529;SDS011;3806;52.270;10.544;2022-09-27T06:04:43;2.33;;;1.85;;
7529;SDS011;3806;52.270;10.544;2022-09-27T06:07:08;2.88;;;1.40;;
7529;SDS011;3806;52.270;10.544;2022-09-27T06:09:34;4.18;;;1.50;;
7529;SDS011;3806;52.270;10.544;2022-09-27T06:12:00;1.70;;;1.50;;
7529;SDS011;3806;52.270;10.544;2022-09-27T06:14:25;4.63;;;1.48;;
7529;SDS011;3806;52.270;10.544;2022-09-27T06:16:51;2.67;;;1.30;;
7529;SDS011;3806;52.270;10.544;2022-09-27T06:19:19;1.42;;;1.33;;
7529;SDS011;3806;52.270;10.544;2022-09-27T06:21:44;3.55;;;1.67;;
7529;SDS011;3806;52.270;10.544;2022-09-27T06:24:13;4.38;;;1.67;;
7529;SDS011;3806;52.270;10.544;2022-09-27T06:26:39;3.47;;;1.65;;
7529;SDS011;3806;52.270;10.544;2022-09-27T06:29:04;5.53;;;1.85;;
7529;SDS011;3806;52.270;10.544;2022-09-27T06:31:30;4.68;;;2.95;;
7529;SDS011;3806;52.270;10.544;2022-09-27T06:33:56;3.75;;;2.63;;
7529;SDS011;3806;52.270;10.544;2022-09-27T06:36:21;4.65;;;2.10;;
7529;SDS011;3806;52.270;10.544;2022-09-27T06:38:47;3.78;;;1.92;;
7529;SDS011;3806;52.270;10.544;2022-09-27T06:41:13;8.52;;;3.90;;
7529;SDS011;3806;52.270;10.544;2022-09-27T06:43:39;14.25;;;6.07;;
7529;SDS011;3806;52.270;10.544;2022-09-27T06:46:04;6.22;;;3.90;;
7529;SDS011;3806;52.270;10.544;2022-09-27T06:48:30;4.10;;;2.45;;
7529;SDS011;3806;52.270;10.544;2022-09-27T06:50:57;5.10;;;2.30;;
7529;SDS011;3806;52.270;10.544;2022-09-27T06:53:23;3.15;;;2.22;;
7529;SDS011;3806;52.270;10.544;2022-09-27T06:55:49;6.72;;;2.38;;
7529;SDS011;3806;52.270;10.544;2022-09-27T06:58:15;4.50;;;2.35;;
7529;SDS011;3806;52.270;10.544;2022-09-27T07:01:00;5.53;;;1.80;;
7529;SDS011;3806;52.270;10.544;2022-09-27T07:03:26;2.78;;;2.13;;
7529;SDS011;3806;52.270;10.544;2022-09-27T07:05:59;4.63;;;2.45;;
7529;SDS011;3806;52.270;10.544;2022-09-27T07:08:27;3.20;;;1.75;;
7529;SDS011;3806;52.270;10.544;2022-09-27T07:11:11;3.10;;;1.55;;
7529;SDS011;3806;52.270;10.544;2022-09-27T07:13:37;5.68;;;1.80;;
7529;SDS011;3806;52.270;10.544;2022-09-27T07:16:06;3.22;;;1.92;;
7529;SDS011;3806;52.270;10.544;2022-09-27T07:18:32;3.58;;;2.08;;
7529;SDS011;3806;52.270;10.544;2022-09-27T07:20:58;5.03;;;2.45;;
7529;SDS011;3806;52.270;10.544;2022-09-27T07:23:24;4.97;;;1.75;;
7529;SDS011;3806;52.270;10.544;2022-09-27T07:25:50;4.18;;;2.33;;
7529;SDS011;3806;52.270;10.544;2022-09-27T07:28:17;4.35;;;1.52;;
7529;SDS011;3806;52.270;10.544;2022-09-27T07:30:44;4.18;;;2.42;;
7529;SDS011;3806;52.270;10.544;2022-09-27T07:33:10;5.15;;;2.00;;
7529;SDS011;3806;52.270;10.544;2022-09-27T07:35:39;3.92;;;2.30;;
7529;SDS011;3806;52.270;10.544;2022-09-27T07:38:06;3.33;;;2.33;;
7529;SDS011;3806;52.270;10.544;2022-09-27T07:40:35;7.60;;;2.55;;
7529;SDS011;3806;52.270;10.544;2022-09-27T07:43:01;3.60;;;2.00;;
7529;SDS011;3806;52.270;10.544;2022-09-27T07:45:28;4.18;;;2.40;;
7529;SDS011;3806;52.270;10.544;2022-09-27T07:47:53;3.45;;;2.08;;
7529;SDS011;3806;52.270;10.544;2022-09-27T07:50:20;3.83;;;2.08;;
7529;SDS011;3806;52.270;10.544;2022-09-27T07:52:46;3.40;;;2.20;;
7529;SDS011;3806;52.270;10.544;2022-09-27T07:55:15;3.55;;;1.60;;
7529;SDS011;3806;52.270;10.544;2022-09-27T07:57:41;2.45;;;2.03;;
7529;SDS011;3806;52.270;10.544;2022-09-27T08:00:09;3.30;;;1.88;;
7529;SDS011;3806;52.270;10.544;2022-09-27T08:02:36;2.72;;;1.50;;
7529;SDS011;3806;52.270;10.544;2022-09-27T08:05:03;4.45;;;1.83;;
7529;SDS011;3806;52.270;10.544;2022-09-27T08:07:29;3.33;;;2.00;;
7529;SDS011;3806;52.270;10.544;2022-09-27T08:09:56;5.80;;;2.38;;
7529;SDS011;3806;52.270;10.544;2022-09-27T08:12:22;6.18;;;2.22;;
7529;SDS011;3806;52.270;10.544;2022-09-27T08:14:48;3.22;;;2.00;;
7529;SDS011;3806;52.270;10.544;2022-09-27T08:17:13;3.38;;;2.30;;
7529;SDS011;3806;52.270;10.544;2022-09-27T08:19:40;3.42;;;2.10;;
7529;SDS011;3806;52.270;10.544;2022-09-27T08:22:06;6.90;;;2.92;;
7529;SDS011;3806;52.270;10.544;2022-09-27T08:24:32;4.07;;;2.28;;
7529;SDS011;3806;52.270;10.544;2022-09-27T08:26:58;6.65;;;3.55;;
7529;SDS011;3806;52.270;10.544;2022-09-27T08:29:24;4.72;;;2.70;;
7529;SDS011;3806;52.270;10.544;2022-09-27T08:31:50;6.13;;;2.60;;
7529;SDS011;3806;52.270;10.544;2022-09-27T08:34:17;6.60;;;3.20;;
7529;SDS011;3806;52.270;10.544;2022-09-27T08:36:43;7.40;;;2.83;;
7529;SDS011;3806;52.270;10.544;2022-09-27T08:39:09;5.18;;;2.28;;
7529;SDS011;3806;52.270;10.544;2022-09-27T08:41:35;3.28;;;2.05;;
7529;SDS011;3806;52.270;10.544;2022-09-27T08:44:16;5.05;;;2.47;;
7529;SDS011;3806;52.270;10.544;2022-09-27T08:49:30;5.32;;;2.92;;
7529;SDS011;3806;52.270;10.544;2022-09-27T08:52:17;3.83;;;2.40;;
7529;SDS011;3806;52.270;10.544;2022-09-27T08:54:45;5.03;;;2.40;;
7529;SDS011;3806;52.270;10.544;2022-09-27T08:57:12;3.95;;;2.28;;
7529;SDS011;3806;52.270;10.544;2022-09-27T08:59:46;5.65;;;2.33;;
7529;SDS011;3806;52.270;10.544;2022-09-27T09:02:21;6.45;;;2.28;;
7529;SDS011;3806;52.270;10.544;2022-09-27T09:04:59;6.63;;;2.90;;
7529;SDS011;3806;52.270;10.544;2022-09-27T09:07:41;4.07;;;2.75;;
7529;SDS011;3806;52.270;10.544;2022-09-27T09:10:27;4.80;;;2.75;;
7529;SDS011;3806;52.270;10.544;2022-09-27T09:30:07;6.85;;;2.30;;
7529;SDS011;3806;52.270;10.544;2022-09-27T09:35:34;4.57;;;2.40;;
7529;SDS011;3806;52.270;10.544;2022-09-27T09:38:23;5.45;;;2.42;;
7529;SDS011;3806;52.270;10.544;2022-09-27T09:40:59;3.22;;;2.00;;
7529;SDS011;3806;52.270;10.544;2022-09-27T09:43:54;4.50;;;2.13;;
7529;SDS011;3806;52.270;10.544;2022-09-27T09:46:26;2.70;;;1.88;;
7529;SDS011;3806;52.270;10.544;2022-09-27T09:49:02;3.95;;;2.03;;
7529;SDS011;3806;52.270;10.544;2022-09-27T09:51:39;4.47;;;2.05;;
7529;SDS011;3806;52.270;10.544;2022-09-27T09:54:19;3.50;;;1.70;;
7529;SDS011;3806;52.270;10.544;2022-09-27T09:56:55;3.28;;;1.63;;
7529;SDS011;3806;52.270;10.544;2022-09-27T09:59:35;2.45;;;1.67;;
7529;SDS011;3806;52.270;10.544;2022-09-27T10:05:06;2.47;;;1.60;;
7529;SDS011;3806;52.270;10.544;2022-09-27T10:07:37;1.88;;;1.40;;
7529;SDS011;3806;52.270;10.544;2022-09-27T10:10:06;3.80;;;1.60;;
7529;SDS011;3806;52.270;10.544;2022-09-27T10:12:35;1.05;;;0.90;;
7529;SDS011;3806;52.270;10.544;2022-09-27T10:15:02;1.50;;;1.25;;
7529;SDS011;3806;52.270;10.544;2022-09-27T10:17:39;2.25;;;0.98;;
7529;SDS011;3806;52.270;10.544;2022-09-27T10:20:06;1.15;;;0.90;;
7529;SDS011;3806;52.270;10.544;2022-09-27T10:22:45;5.97;;;1.25;;
7529;SDS011;3806;52.270;10.544;2022-09-27T10:25:18;3.95;;;1.08;;
7529;SDS011;3806;52.270;10.544;2022-09-27T10:27:45;4.35;;;1.20;;
7529;SDS011;3806;52.270;10.544;2022-09-27T10:30:31;1.73;;;1.00;;
7529;SDS011;3806;52.270;10.544;2022-09-27T10:33:03;1.45;;;1.10;;
7529;SDS011;3806;52.270;10.544;2022-09-27T10:35:35;1.25;;;1.05;;
7529;SDS011;3806;52.270;10.544;2022-09-27T10:40:41;2.45;;;1.08;;
7529;SDS011;3806;52.270;10.544;2022-09-27T10:49:06;1.40;;;0.98;;
7529;SDS011;3806;52.270;10.544;2022-09-27T10:51:33;2.72;;;0.80;;
7529;SDS011;3806;52.270;10.544;2022-09-27T10:54:00;1.35;;;0.77;;
7529;SDS011;3806;52.270;10.544;2022-09-27T10:56:33;4.55;;;1.73;;
7529;SDS011;3806;52.270;10.544;2022-09-27T10:58:59;0.95;;;0.68;;
7529;SDS011;3806;52.270;10.544;2022-09-27T11:01:42;1.90;;;0.63;;
7529;SDS011;3806;52.270;10.544;2022-09-27T11:04:23;2.03;;;0.90;;
7529;SDS011;3806;52.270;10.544;2022-09-27T11:09:49;1.63;;;0.50;;
7529;SDS011;3806;52.270;10.544;2022-09-27T11:12:18;0.40;;;0.40;;
7529;SDS011;3806;52.270;10.544;2022-09-27T11:15:05;5.15;;;0.60;;
7529;SDS011;3806;52.270;10.544;2022-09-27T11:20:24;1.67;;;1.05;;
7529;SDS011;3806;52.270;10.544;2022-09-27T11:23:11;3.42;;;0.50;;
7529;SDS011;3806;52.270;10.544;2022-09-27T11:30:49;1.95;;;0.70;;
7529;SDS011;3806;52.270;10.544;2022-09-27T11:39:19;1.60;;;0.50;;
7529;SDS011;3806;52.270;10.544;2022-09-27T11:44:59;0.80;;;0.43;;
7529;SDS011;3806;52.270;10.544;2022-09-27T11:50:36;1.00;;;0.40;;
7529;SDS011;3806;52.270;10.544;2022-09-27T11:53:39;1.02;;;0.43;;
7529;SDS011;3806;52.270;10.544;2022-09-27T12:10:40;0.52;;;0.43;;
7529;SDS011;3806;52.270;10.544;2022-09-27T12:13:11;0.77;;;0.43;;
7529;SDS011;3806;52.270;10.544;2022-09-27T12:15:40;1.75;;;0.52;;
7529;SDS011;3806;52.270;10.544;2022-09-27T12:18:09;0.40;;;0.30;;
7529;SDS011;3806;52.270;10.544;2022-09-27T12:21:02;3.13;;;0.40;;
7529;SDS011;3806;52.270;10.544;2022-09-27T12:23:50;1.88;;;0.52;;
7529;SDS011;3806;52.270;10.544;2022-09-27T12:26:25;0.65;;;0.43;;
7529;SDS011;3806;52.270;10.544;2022-09-27T12:32:08;2.38;;;0.60;;
7529;SDS011;3806;52.270;10.544;2022-09-27T12:37:23;3.00;;;0.50;;
7529;SDS011;3806;52.270;10.544;2022-09-27T12:39:53;2.55;;;0.98;;
7529;SDS011;3806;52.270;10.544;2022-09-27T12:45:00;0.40;;;0.40;;
7529;SDS011;3806;52.270;10.544;2022-09-27T12:50:37;0.52;;;0.30;;
7529;SDS011;3806;52.270;10.544;2022-09-27T12:53:19;0.70;;;0.55;;
7529;SDS011;3806;52.270;10.544;2022-09-27T13:06:32;1.45;;;0.47;;
7529;SDS011;3806;52.270;10.544;2022-09-27T13:09:30;0.40;;;0.30;;
7529;SDS011;3806;52.270;10.544;2022-09-27T13:12:20;0.22;;;0.08;;
7529;SDS011;3806;52.270;10.544;2022-09-27T13:15:02;1.05;;;0.40;;
7529;SDS011;3806;52.270;10.544;2022-09-27T13:22:56;0.30;;;0.22;;
7529;SDS011;3806;52.270;10.544;2022-09-27T13:31:08;0.80;;;0.60;;
7529;SDS011;3806;52.270;10.544;2022-09-27T13:36:25;1.67;;;0.30;;
7529;SDS011;3806;52.270;10.544;2022-09-27T13:44:15;0.85;;;0.60;;
7529;SDS011;3806;52.270;10.544;2022-09-27T13:46:48;0.93;;;0.47;;
7529;SDS011;3806;52.270;10.544;2022-09-27T13:49:35;2.65;;;0.43;;
7529;SDS011;3806;52.270;10.544;2022-09-27T13:52:04;0.52;;;0.20;;
7529;SDS011;3806;52.270;10.544;2022-09-27T13:54:52;0.35;;;0.35;;
7529;SDS011;3806;52.270;10.544;2022-09-27T14:00:13;0.50;;;0.30;;
7529;SDS011;3806;52.270;10.544;2022-09-27T14:03:06;0.20;;;0.20;;
7529;SDS011;3806;52.270;10.544;2022-09-27T14:05:57;0.80;;;0.20;;
7529;SDS011;3806;52.270;10.544;2022-09-27T14:08:35;0.22;;;0.20;;
7529;SDS011;3806;52.270;10.544;2022-09-27T14:11:10;0.75;;;0.40;;
7529;SDS011;3806;52.270;10.544;2022-09-27T14:13:39;0.30;;;0.30;;
7529;SDS011;3806;52.270;10.544;2022-09-27T14:16:12;0.20;;;0.20;;
7529;SDS011;3806;52.270;10.544;2022-09-27T14:18:47;0.30;;;0.20;;
7529;SDS011;3806;52.270;10.544;2022-09-27T14:21:41;2.55;;;0.30;;
7529;SDS011;3806;52.270;10.544;2022-09-27T14:24:27;1.45;;;0.45;;
7529;SDS011;3806;52.270;10.544;2022-09-27T14:27:18;0.25;;;0.25;;
7529;SDS011;3806;52.270;10.544;2022-09-27T14:32:26;1.35;;;0.30;;
7529;SDS011;3806;52.270;10.544;2022-09-27T14:38:07;2.00;;;0.85;;
7529;SDS011;3806;52.270;10.544;2022-09-27T14:40:43;0.22;;;0.22;;
7529;SDS011;3806;52.270;10.544;2022-09-27T14:43:18;0.45;;;0.20;;
7529;SDS011;3806;52.270;10.544;2022-09-27T14:45:49;2.15;;;0.75;;
7529;SDS011;3806;52.270;10.544;2022-09-27T14:51:01;0.13;;;0.10;;
7529;SDS011;3806;52.270;10.544;2022-09-27T14:53:48;1.13;;;0.50;;
7529;SDS011;3806;52.270;10.544;2022-09-27T14:56:23;0.80;;;0.30;;
7529;SDS011;3806;52.270;10.544;2022-09-27T14:58:56;0.60;;;0.30;;
7529;SDS011;3806;52.270;10.544;2022-09-27T15:01:27;0.82;;;0.30;;
7529;SDS011;3806;52.270;10.544;2022-09-27T15:04:02;0.17;;;0.17;;
7529;SDS011;3806;52.270;10.544;2022-09-27T15:06:31;0.10;;;0.10;;
7529;SDS011;3806;52.270;10.544;2022-09-27T15:08:57;0.20;;;0.20;;
7529;SDS011;3806;52.270;10.544;2022-09-27T15:11:24;1.15;;;0.30;;
7529;SDS011;3806;52.270;10.544;2022-09-27T15:13:50;0.57;;;0.30;;
7529;SDS011;3806;52.270;10.544;2022-09-27T15:16:19;0.45;;;0.40;;
7529;SDS011;3806;52.270;10.544;2022-09-27T15:18:57;0.00;;;0.00;;
7529;SDS011;3806;52.270;10.544;2022-09-27T15:21:30;0.10;;;0.10;;
7529;SDS011;3806;52.270;10.544;2022-09-27T15:23:56;0.60;;;0.28;;
7529;SDS011;3806;52.270;10.544;2022-09-27T15:29:00;1.20;;;0.38;;
7529;SDS011;3806;52.270;10.544;2022-09-27T15:33:56;2.30;;;0.50;;
7529;SDS011;3806;52.270;10.544;2022-09-27T15:39:10;0.77;;;0.70;;
7529;SDS011;3806;52.270;10.544;2022-09-27T15:52:42;1.17;;;1.08;;
7529;SDS011;3806;52.270;10.544;2022-09-27T15:55:16;0.95;;;0.57;;
7529;SDS011;3806;52.270;10.544;2022-09-27T15:57:44;2.10;;;1.10;;
7529;SDS011;3806;52.270;10.544;2022-09-27T16:00:14;0.80;;;0.77;;
7529;SDS011;3806;52.270;10.544;2022-09-27T16:02:42;0.77;;;0.63;;
7529;SDS011;3806;52.270;10.544;2022-09-27T16:05:08;0.90;;;0.57;;
7529;SDS011;3806;52.270;10.544;2022-09-27T16:07:33;1.63;;;0.60;;
7529;SDS011;3806;52.270;10.544;2022-09-27T16:09:59;0.85;;;0.45;;
7529;SDS011;3806;52.270;10.544;2022-09-27T16:12:25;2.75;;;0.60;;
7529;SDS011;3806;52.270;10.544;2022-09-27T16:14:54;0.52;;;0.35;;
7529;SDS011;3806;52.270;10.544;2022-09-27T16:17:20;0.47;;;0.32;;
7529;SDS011;3806;52.270;10.544;2022-09-27T16:19:46;0.55;;;0.40;;
7529;SDS011;3806;52.270;10.544;2022-09-27T16:22:11;0.63;;;0.63;;
7529;SDS011;3806;52.270;10.544;2022-09-27T16:24:37;0.95;;;0.50;;
7529;SDS011;3806;52.270;10.544;2022-09-27T16:27:03;0.77;;;0.60;;
7529;SDS011;3806;52.270;10.544;2022-09-27T16:29:28;0.22;;;0.22;;
7529;SDS011;3806;52.270;10.544;2022-09-27T16:31:54;0.40;;;0.40;;
7529;SDS011;3806;52.270;10.544;2022-09-27T16:34:20;0.47;;;0.43;;
7529;SDS011;3806;52.270;10.544;2022-09-27T16:36:45;0.43;;;0.38;;
7529;SDS011;3806;52.270;10.544;2022-09-27T16:39:13;1.38;;;0.77;;
7529;SDS011;3806;52.270;10.544;2022-09-27T16:41:41;2.05;;;0.73;;
7529;SDS011;3806;52.270;10.544;2022-09-27T16:44:11;0.80;;;0.50;;
7529;SDS011;3806;52.270;10.544;2022-09-27T16:46:41;0.40;;;0.40;;
7529;SDS011;3806;52.270;10.544;2022-09-27T16:49:11;3.63;;;0.50;;
7529;SDS011;3806;52.270;10.544;2022-09-27T16:51:55;1.25;;;0.80;;
7529;SDS011;3806;52.270;10.544;2022-09-27T16:54:25;0.70;;;0.38;;
7529;SDS011;3806;52.270;10.544;2022-09-27T16:56:53;0.70;;;0.50;;
7529;SDS011;3806;52.270;10.544;2022-09-27T16:59:19;0.85;;;0.20;;
7529;SDS011;3806;52.270;10.544;2022-09-27T17:01:45;0.50;;;0.40;;
7529;SDS011;3806;52.270;10.544;2022-09-27T17:04:11;1.27;;;0.75;;
7529;SDS011;3806;52.270;10.544;2022-09-27T17:06:38;0.90;;;0.45;;
7529;SDS011;3806;52.270;10.544;2022-09-27T17:09:04;2.83;;;0.80;;
7529;SDS011;3806;52.270;10.544;2022-09-27T17:11:29;1.75;;;1.00;;
7529;SDS011;3806;52.270;10.544;2022-09-27T17:13:55;1.05;;;0.70;;
7529;SDS011;3806;52.270;10.544;2022-09-27T17:16:21;1.42;;;1.08;;
7529;SDS011;3806;52.270;10.544;2022-09-27T17:18:48;3.35;;;1.33;;
7529;SDS011;3806;52.270;10.544;2022-09-27T17:21:16;3.70;;;1.38;;
7529;SDS011;3806;52.270;10.544;2022-09-27T17:23:41;2.70;;;1.15;;
7529;SDS011;3806;52.270;10.544;2022-09-27T17:26:08;3.58;;;1.10;;
7529;SDS011;3806;52.270;10.544;2022-09-27T17:28:38;1.90;;;1.08;;
7529;SDS011;3806;52.270;10.544;2022-09-27T17:31:04;2.95;;;1.08;;
7529;SDS011;3806;52.270;10.544;2022-09-27T17:33:38;3.03;;;1.20;;
7529;SDS011;3806;52.270;10.544;2022-09-27T17:36:13;1.83;;;1.08;;
7529;SDS011;3806;52.270;10.544;2022-09-27T17:38:41;2.45;;;1.30;;
7529;SDS011;3806;52.270;10.544;2022-09-27T17:41:08;2.45;;;1.70;;
7529;SDS011;3806;52.270;10.544;2022-09-27T17:43:36;1.65;;;1.08;;
7529;SDS011;3806;52.270;10.544;2022-09-27T17:46:04;2.33;;;1.20;;
7529;SDS011;3806;52.270;10.544;2022-09-27T17:48:34;3.38;;;1.33;;
7529;SDS011;3806;52.270;10.544;2022-09-27T17:51:19;2.03;;;1.33;;
7529;SDS011;3806;52.270;10.544;2022-09-27T17:53:45;2.95;;;1.60;;
7529;SDS011;3806;52.270;10.544;2022-09-27T17:56:11;2.35;;;1.52;;
7529;SDS011;3806;52.270;10.544;2022-09-27T17:58:38;3.78;;;1.63;;
7529;SDS011;3806;52.270;10.544;2022-09-27T18:01:14;4.15;;;1.80;;
7529;SDS011;3806;52.270;10.544;2022-09-27T18:03:40;2.20;;;1.77;;
7529;SDS011;3806;52.270;10.544;2022-09-27T18:06:06;3.90;;;1.67;;
7529;SDS011;3806;52.270;10.544;2022-09-27T18:08:32;2.33;;;1.27;;
7529;SDS011;3806;52.270;10.544;2022-09-27T18:11:14;1.48;;;1.13;;
7529;SDS011;3806;52.270;10.544;2022-09-27T18:13:42;2.20;;;1.20;;
7529;SDS011;3806;52.270;10.544;2022-09-27T18:16:10;3.72;;;1.67;;
7529;SDS011;3806;52.270;10.544;2022-09-27T18:18:40;4.10;;;1.58;;
7529;SDS011;3806;52.270;10.544;2022-09-27T18:21:09;2.70;;;1.65;;
7529;SDS011;3806;52.270;10.544;2022-09-27T18:23:38;2.03;;;1.40;;
7529;SDS011;3806;52.270;10.544;2022-09-27T18:26:04;2.45;;;1.38;;